Time;durP1;ratioP1;P1;durP2;ratioP2;P2;SDS_P1;SDS_P2;PMS_P1;PMS_P2;Temp;Humidity;BMP_temperature;BMP_pressure;BME280_temperature;BME280_humidity;BME280_pressure;Samples;Min_cycle;Max_cycle;Signal;HPM_P1;HPM_P2
2023/02/15 00:01:58;;;;;;;9.03;5.70;;;0.50;99.90;;;1.16;100.00;99548.66;5002962;28;20482;-77
2023/02/15 00:04:45;;;;;;;7.70;4.73;;;0.60;99.90;;;1.19;100.00;99545.88;5004042;28;20462;-77
2023/02/15 00:07:17;;;;;;;8.60;4.90;;;0.60;99.90;;;1.22;100.00;99546.53;4998017;28;20992;-77
2023/02/15 00:09:47;;;;;;;9.70;5.70;;;0.60;99.90;;;1.22;100.00;99540.56;5000586;28;21028;-77
2023/02/15 00:12:17;;;;;;;8.13;4.90;;;0.60;99.90;;;1.18;100.00;99537.31;5003904;28;20502;-77
2023/02/15 00:14:49;;;;;;;8.57;5.43;;;0.50;99.90;;;1.16;100.00;99533.19;5002502;28;20793;-78
2023/02/15 00:17:19;;;;;;;7.57;4.63;;;0.50;99.90;;;1.19;100.00;99536.41;5001837;28;20546;-77
2023/02/15 00:19:49;;;;;;;10.67;4.90;;;0.60;99.90;;;1.20;100.00;99532.09;5003046;28;21387;-77
2023/02/15 00:22:20;;;;;;;8.70;5.40;;;0.60;99.90;;;1.17;100.00;99527.97;5001611;28;21056;-77
2023/02/15 00:24:49;;;;;;;12.37;4.80;;;0.60;99.90;;;1.12;100.00;99537.69;5003170;28;20500;-78
2023/02/15 00:27:20;;;;;;;7.10;4.83;;;0.60;99.90;;;1.13;100.00;99534.22;5004440;28;20467;-77
2023/02/15 00:29:53;;;;;;;24.93;4.77;;;0.50;99.90;;;1.09;100.00;99535.31;5003086;28;20452;-77
2023/02/15 00:32:23;;;;;;;10.27;5.43;;;0.40;99.90;;;1.08;100.00;99522.53;5002078;28;20837;-77
2023/02/15 00:34:52;;;;;;;18.23;5.63;;;0.50;99.90;;;1.09;100.00;99521.59;5002375;28;20488;-77
2023/02/15 00:37:22;;;;;;;13.77;5.27;;;0.50;99.90;;;1.08;100.00;99520.78;5002461;28;20475;-77
2023/02/15 00:39:53;;;;;;;11.87;5.03;;;0.50;99.90;;;0.99;100.00;99519.59;5005696;28;20553;-77
2023/02/15 00:42:23;;;;;;;16.53;4.93;;;0.40;99.90;;;0.97;100.00;99520.59;5003111;28;21016;-77
2023/02/15 00:44:54;;;;;;;12.07;5.53;;;0.30;99.90;;;0.94;100.00;99525.91;5001390;28;20504;-77
2023/02/15 00:47:25;;;;;;;14.40;5.83;;;0.30;99.90;;;0.95;100.00;99525.00;5002312;28;21277;-77
2023/02/15 00:49:55;;;;;;;9.23;4.70;;;0.30;99.90;;;0.97;100.00;99525.75;5003242;28;20498;-77
2023/02/15 00:52:24;;;;;;;10.77;5.23;;;0.30;99.90;;;0.97;100.00;99520.59;5000754;28;20537;-77
2023/02/15 00:54:54;;;;;;;8.10;4.80;;;0.30;99.90;;;0.99;100.00;99521.31;5001251;28;21002;-77
2023/02/15 00:57:23;;;;;;;7.40;4.67;;;0.50;99.90;;;0.96;100.00;99518.94;5001498;28;20573;-77
2023/02/15 00:59:53;;;;;;;8.70;3.93;;;0.40;99.90;;;0.92;100.00;99514.88;5001656;28;20473;-77
2023/02/15 01:02:23;;;;;;;8.00;4.10;;;0.40;99.90;;;0.88;100.00;99515.97;4999867;28;20474;-77
2023/02/15 01:04:52;;;;;;;10.97;4.07;;;0.30;99.90;;;0.87;100.00;99511.72;5004152;28;20504;-77
2023/02/15 01:07:21;;;;;;;9.37;4.20;;;0.40;99.90;;;0.85;100.00;99506.69;5005320;28;20473;-78
2023/02/15 01:09:50;;;;;;;13.60;4.97;;;0.40;99.90;;;0.85;100.00;99509.28;5004579;28;20603;-79
2023/02/15 01:12:20;;;;;;;13.10;4.10;;;0.30;99.90;;;0.77;100.00;99511.44;5004756;28;20539;-77
2023/02/15 01:14:50;;;;;;;13.67;4.83;;;0.20;99.90;;;0.76;100.00;99512.38;5002335;28;20535;-77
2023/02/15 01:17:22;;;;;;;8.53;4.17;;;0.20;99.90;;;0.74;100.00;99506.50;5004653;28;20843;-77
2023/02/15 01:19:52;;;;;;;7.20;4.33;;;0.30;99.90;;;0.77;100.00;99515.78;5000472;28;20461;-77
2023/02/15 01:22:21;;;;;;;7.63;4.80;;;0.40;99.90;;;0.78;100.00;99509.72;5002761;28;20472;-77
2023/02/15 01:24:52;;;;;;;16.10;3.53;;;0.30;99.90;;;0.69;100.00;99511.09;5000544;28;20481;-77
2023/02/15 01:27:21;;;;;;;10.03;5.60;;;0.20;99.90;;;0.71;100.00;99505.84;5003884;28;20552;-77
2023/02/15 01:29:51;;;;;;;17.90;4.77;;;0.30;99.90;;;0.72;100.00;99508.34;5003149;28;20835;-77
2023/02/15 01:32:23;;;;;;;12.03;5.03;;;0.10;99.90;;;0.77;100.00;99505.47;5001301;28;21031;-78
2023/02/15 01:34:53;;;;;;;15.03;4.57;;;0.20;99.90;;;0.76;100.00;99502.09;5003239;28;20610;-77
2023/02/15 01:37:22;;;;;;;14.07;4.60;;;0.20;99.90;;;0.76;100.00;99502.09;5001571;28;20474;-78
2023/02/15 01:39:53;;;;;;;12.50;4.97;;;0.20;99.90;;;0.76;100.00;99503.84;5002706;28;20462;-77
2023/02/15 01:42:23;;;;;;;26.33;5.43;;;0.20;99.90;;;0.77;100.00;99497.75;5000796;28;20480;-77
2023/02/15 01:44:58;;;;;;;13.43;5.10;;;0.20;99.90;;;0.75;100.00;99497.03;5001575;28;20991;-77
2023/02/15 01:47:39;;;;;;;7.57;4.40;;;0.00;99.90;;;0.76;100.00;99503.84;5001729;28;20464;-77
2023/02/15 01:50:16;;;;;;;10.17;4.97;;;0.10;99.90;;;0.78;100.00;99504.56;5001967;28;20464;-77
2023/02/15 01:52:54;;;;;;;6.77;4.17;;;0.20;99.90;;;0.76;100.00;99501.25;5001719;28;20555;-77
2023/02/15 01:55:25;;;;;;;8.17;3.77;;;0.00;99.90;;;0.80;100.00;99495.03;5001508;28;20486;-78
2023/02/15 01:57:55;;;;;;;10.40;4.60;;;0.20;99.90;;;0.81;100.00;99486.34;5001277;28;21037;-77
2023/02/15 02:00:24;;;;;;;10.57;4.10;;;0.30;99.90;;;0.82;100.00;99488.84;5001728;28;20476;-77
2023/02/15 02:02:57;;;;;;;33.60;4.90;;;0.30;99.90;;;0.83;100.00;99492.25;5002672;28;20463;-77
2023/02/15 02:05:27;;;;;;;12.63;4.90;;;0.30;99.90;;;0.81;100.00;99492.34;5001542;28;20496;-77
2023/02/15 02:08:02;;;;;;;12.00;5.33;;;0.20;99.90;;;0.79;100.00;99496.75;5001077;28;20548;-77
2023/02/15 02:10:31;;;;;;;13.70;5.03;;;0.20;99.90;;;0.81;100.00;99488.94;5001980;28;20466;-78
2023/02/15 02:13:07;;;;;;;8.77;5.17;;;0.20;99.90;;;0.77;100.00;99480.56;5005394;28;20457;-77
2023/02/15 02:15:55;;;;;;;10.63;5.50;;;0.10;99.90;;;0.81;100.00;99479.47;5003846;28;20460;-77
2023/02/15 02:18:47;;;;;;;11.53;5.03;;;0.10;99.90;;;0.75;100.00;99479.84;5004875;28;20464;-77
2023/02/15 02:22:11;;;;;;;13.33;4.43;;;0.10;99.90;;;0.74;100.00;99477.34;5002358;28;20458;-77
2023/02/15 02:25:42;;;;;;;9.80;4.60;;;0.00;99.90;;;0.70;100.00;99473.28;5000674;28;20604;-77
2023/02/15 02:28:43;;;;;;;18.83;4.77;;;0.10;99.90;;;0.69;100.00;99472.47;5007297;28;20579;-77
2023/02/15 02:31:57;;;;;;;30.43;5.80;;;0.00;99.90;;;0.70;100.00;99470.72;5009280;28;20442;-77
2023/02/15 02:34:33;;;;;;;14.13;6.00;;;0.20;99.90;;;0.66;100.00;99458.97;5006835;28;20496;-77
2023/02/15 02:37:17;;;;;;;15.73;5.30;;;0.10;99.90;;;0.70;100.00;99455.28;5006340;28;21079;-77
2023/02/15 02:39:56;;;;;;;10.67;5.23;;;0.20;99.90;;;0.69;100.00;99453.63;5007859;28;20494;-77
2023/02/15 02:42:37;;;;;;;24.97;5.07;;;0.20;99.90;;;0.71;100.00;99456.94;5008475;28;20456;-77
2023/02/15 02:45:13;;;;;;;13.20;4.93;;;0.20;99.90;;;0.71;100.00;99456.94;5008122;28;20468;-77
2023/02/15 02:47:49;;;;;;;24.70;5.40;;;0.30;99.90;;;0.62;100.00;99457.50;5008802;28;20456;-77
2023/02/15 02:50:30;;;;;;;8.10;5.60;;;0.20;99.90;;;0.55;100.00;99451.03;5007359;28;20820;-77
2023/02/15 02:53:00;;;;;;;13.33;4.90;;;0.20;99.90;;;0.53;100.00;99448.53;5006773;28;20498;-77
2023/02/15 02:55:37;;;;;;;17.50;5.30;;;0.20;99.90;;;0.45;100.00;99438.69;5006264;28;20480;-77
2023/02/15 02:58:15;;;;;;;7.50;4.33;;;0.20;99.90;;;0.40;100.00;99443.28;5008391;28;21066;-77
2023/02/15 03:00:53;;;;;;;15.27;5.33;;;0.00;99.90;;;0.42;100.00;99444.03;5007680;28;20469;-77
2023/02/15 03:03:30;;;;;;;11.30;4.13;;;0.00;99.90;;;0.38;100.00;99442.53;5008128;28;20467;-77
2023/02/15 03:06:06;;;;;;;10.70;5.37;;;0.00;99.90;;;0.38;100.00;99445.13;5006225;28;20463;-77
2023/02/15 03:08:43;;;;;;;8.40;5.07;;;0.00;99.90;;;0.41;100.00;99432.09;5007062;28;20473;-77
2023/02/15 03:11:13;;;;;;;12.90;5.10;;;0.00;99.90;;;0.42;100.00;99431.16;5006912;28;20457;-77
2023/02/15 03:13:44;;;;;;;9.63;5.07;;;-0.10;99.90;;;0.46;100.00;99432.63;5004422;28;20459;-78
2023/02/15 03:16:27;;;;;;;8.70;4.73;;;0.00;99.90;;;0.47;100.00;99434.31;5005985;28;20459;-77
2023/02/15 03:19:03;;;;;;;14.20;6.50;;;-0.10;99.90;;;0.50;100.00;99436.69;5003594;28;20496;-77
2023/02/15 03:21:39;;;;;;;13.60;5.00;;;-0.10;99.90;;;0.56;100.00;99432.94;5003661;28;20995;-77
2023/02/15 03:24:17;;;;;;;8.97;5.60;;;0.10;99.90;;;0.53;100.00;99425.38;5006757;28;20464;-77
2023/02/15 03:26:52;;;;;;;11.40;5.60;;;0.00;99.90;;;0.53;100.00;99422.81;5007457;28;20451;-77
2023/02/15 03:29:28;;;;;;;14.27;5.97;;;0.00;99.90;;;0.56;100.00;99432.09;5006817;28;20542;-77
2023/02/15 03:32:07;;;;;;;12.00;4.97;;;0.00;99.90;;;0.58;100.00;99431.09;5005812;28;20476;-77
2023/02/15 03:34:36;;;;;;;11.13;5.70;;;0.00;99.90;;;0.59;100.00;99437.09;5002226;28;20846;-77
2023/02/15 03:37:14;;;;;;;15.60;5.33;;;0.00;99.90;;;0.56;100.00;99435.50;5003702;28;20917;-77
2023/02/15 03:39:52;;;;;;;11.60;4.77;;;0.00;99.90;;;0.60;100.00;99433.56;5006185;28;21321;-77
2023/02/15 03:42:29;;;;;;;9.83;5.93;;;0.10;99.90;;;0.58;100.00;99425.97;5003456;28;20534;-77
2023/02/15 03:45:04;;;;;;;14.33;5.73;;;0.10;99.90;;;0.56;100.00;99416.66;5007102;28;20811;-77
2023/02/15 03:47:40;;;;;;;9.13;5.70;;;0.10;99.90;;;0.52;100.00;99414.25;5007341;28;20467;-77
2023/02/15 03:53:06;;;;;;;15.70;5.60;;;0.10;99.90;;;0.52;100.00;99416.84;5003469;28;20466;-77
2023/02/15 03:55:36;;;;;;;17.33;6.17;;;0.10;99.90;;;0.52;100.00;99411.69;5004464;28;20484;-77
2023/02/15 04:04:01;;;;;;;13.60;4.90;;;-0.10;99.90;;;0.48;100.00;99410.25;4999955;28;20530;-79
2023/02/15 04:06:29;;;;;;;15.57;7.30;;;-0.10;99.90;;;0.50;100.00;99415.28;5002979;28;20886;-75
2023/02/15 04:11:48;;;;;;;17.03;5.27;;;0.10;99.90;;;0.53;100.00;99412.53;5001887;28;20471;-77
2023/02/15 04:17:07;;;;;;;18.63;6.13;;;0.00;99.90;;;0.41;100.00;99416.66;5000845;28;20469;-78
2023/02/15 04:25:16;;;;;;;24.67;4.90;;;0.00;99.90;;;0.39;100.00;99413.34;5002910;28;20466;-78
2023/02/15 04:27:49;;;;;;;20.37;5.20;;;-0.20;99.90;;;0.39;100.00;99415.91;5003844;28;20471;-72
2023/02/15 04:30:22;;;;;;;13.63;5.30;;;-0.20;99.90;;;0.35;100.00;99413.59;4999420;28;20522;-78
2023/02/15 04:32:52;;;;;;;14.63;5.00;;;-0.30;99.90;;;0.37;100.00;99417.75;4999401;28;20468;-78
2023/02/15 04:35:22;;;;;;;10.57;5.80;;;-0.30;99.90;;;0.36;100.00;99410.94;5001478;28;21025;-78
2023/02/15 04:37:51;;;;;;;11.43;5.50;;;-0.30;99.90;;;0.36;100.00;99410.13;5002938;28;20458;-78
2023/02/15 04:40:23;;;;;;;15.57;6.53;;;-0.20;99.90;;;0.36;100.00;99413.50;5001979;28;20488;-77
2023/02/15 04:42:54;;;;;;;18.90;6.07;;;-0.20;99.90;;;0.35;100.00;99413.59;5005653;28;20482;-78
2023/02/15 04:45:25;;;;;;;7.30;4.80;;;-0.10;99.90;;;0.27;100.00;99414.06;5004603;28;20495;-77
2023/02/15 04:47:54;;;;;;;14.20;4.93;;;-0.30;99.90;;;0.30;100.00;99406.16;5005306;28;20517;-78
2023/02/15 04:50:24;;;;;;;14.23;5.13;;;-0.30;99.90;;;0.30;100.00;99408.75;5004588;28;20549;-78
2023/02/15 04:52:53;;;;;;;22.23;5.77;;;-0.30;99.90;;;0.30;100.00;99406.16;5003186;28;20470;-78
2023/02/15 04:55:26;;;;;;;13.37;4.70;;;-0.30;99.90;;;0.32;100.00;99406.88;5006036;28;20918;-77
2023/02/15 04:57:57;;;;;;;8.57;4.77;;;-0.30;99.90;;;0.29;100.00;99406.25;5005623;28;21033;-77
2023/02/15 05:00:27;;;;;;;27.57;5.63;;;-0.30;99.90;;;0.26;100.00;99412.41;5002739;28;20457;-77
2023/02/15 05:02:57;;;;;;;8.90;4.97;;;-0.40;99.90;;;0.29;100.00;99417.38;5004436;28;20456;-78
2023/02/15 05:05:27;;;;;;;11.53;5.23;;;-0.40;99.90;;;0.32;100.00;99419.75;5005053;28;20482;-77
2023/02/15 05:07:57;;;;;;;11.23;4.50;;;-0.30;99.90;;;0.34;100.00;99423.09;5001377;28;20468;-77
2023/02/15 05:10:27;;;;;;;8.33;4.53;;;-0.30;99.90;;;0.37;100.00;99411.78;5002585;28;20468;-73
2023/02/15 05:12:56;;;;;;;18.90;5.50;;;-0.20;99.90;;;0.29;100.00;99419.94;5005188;28;20512;-78
2023/02/15 05:15:26;;;;;;;7.80;4.30;;;-0.20;99.90;;;0.20;100.00;99410.19;5003405;28;20499;-77
2023/02/15 05:17:55;;;;;;;12.47;5.40;;;-0.20;99.90;;;0.23;100.00;99409.19;5004722;28;20474;-77
2023/02/15 05:20:26;;;;;;;17.40;5.90;;;-0.30;99.90;;;0.18;100.00;99413.75;5002507;28;20989;-77
2023/02/15 05:22:56;;;;;;;21.20;4.83;;;-0.30;99.90;;;0.21;100.00;99411.81;5005989;28;21070;-77
2023/02/15 05:28:23;;;;;;;9.43;5.27;;;-0.20;99.90;;;0.17;100.00;99409.53;5004272;28;20986;-77
2023/02/15 05:31:04;;;;;;;27.53;5.83;;;-0.30;99.90;;;0.17;100.00;99405.22;5002665;28;20463;-78
2023/02/15 05:33:36;;;;;;;12.43;5.00;;;-0.40;99.90;;;0.20;100.00;99405.03;5002517;28;20493;-78
2023/02/15 05:36:06;;;;;;;17.63;6.37;;;-0.50;99.90;;;0.22;100.00;99416.06;5003214;28;20526;-77
2023/02/15 05:38:37;;;;;;;16.63;5.90;;;-0.50;99.90;;;0.25;100.00;99415.88;5000645;28;20965;-77
2023/02/15 05:41:11;;;;;;;17.63;5.83;;;-0.30;99.90;;;0.24;100.00;99410.84;5000907;28;20494;-77
2023/02/15 05:43:40;;;;;;;11.90;5.53;;;-0.30;99.90;;;0.27;100.00;99410.66;4998956;28;20474;-78
2023/02/15 05:46:09;;;;;;;19.95;7.72;;;-0.30;99.90;;;0.29;100.00;99412.22;5000157;28;20467;-78
2023/02/15 05:48:39;;;;;;;15.13;5.77;;;-0.30;99.90;;;0.29;100.00;99414.78;5006157;28;20467;-80
2023/02/15 05:51:12;;;;;;;13.83;5.53;;;-0.30;99.90;;;0.32;100.00;99419.75;5006548;28;20990;-79
2023/02/15 05:53:42;;;;;;;11.47;6.50;;;-0.30;99.90;;;0.31;100.00;99418.09;5007146;28;20463;-80
2023/02/15 05:56:13;;;;;;;10.03;5.67;;;-0.40;99.90;;;0.30;100.00;99426.75;5006861;28;20898;-79
2023/02/15 05:58:43;;;;;;;10.93;6.27;;;-0.40;99.90;;;0.24;100.00;99429.69;5007079;28;20469;-79
2023/02/15 06:01:15;;;;;;;17.93;5.70;;;-0.50;99.90;;;0.25;100.00;99431.31;5009572;28;20488;-79
2023/02/15 06:03:45;;;;;;;13.67;6.03;;;-0.50;99.90;;;0.28;100.00;99428.56;5008328;28;20558;-80
2023/02/15 06:06:14;;;;;;;18.23;6.07;;;-0.40;99.90;;;0.31;100.00;99423.22;5008178;28;20992;-80
2023/02/15 06:08:44;;;;;;;12.20;6.10;;;-0.40;99.90;;;0.29;100.00;99426.81;5009004;28;20472;-79
2023/02/15 06:11:14;;;;;;;14.07;5.13;;;-0.40;99.90;;;0.19;100.00;99423.94;5009151;28;20472;-79
2023/02/15 06:13:44;;;;;;;11.60;5.37;;;-0.60;99.90;;;0.16;100.00;99424.13;5009826;28;20473;-79
2023/02/15 06:16:15;;;;;;;15.50;5.37;;;-0.60;99.90;;;0.12;100.00;99429.53;5009980;28;20497;-79
2023/02/15 06:18:45;;;;;;;14.90;5.60;;;-0.70;99.90;;;0.14;100.00;99425.94;5009980;28;20470;-80
2023/02/15 06:21:15;;;;;;;13.97;6.30;;;-0.60;99.90;;;0.15;100.00;99417.31;5010000;28;20485;-79
2023/02/15 06:23:44;;;;;;;17.23;5.53;;;-0.60;99.90;;;0.18;100.00;99414.56;5009873;28;20487;-79
2023/02/15 06:26:15;;;;;;;26.87;6.57;;;-0.60;99.90;;;0.17;100.00;99425.81;5008210;28;20472;-80
2023/02/15 06:28:45;;;;;;;23.73;6.07;;;-0.60;99.90;;;0.20;100.00;99420.47;5008734;28;20965;-80
2023/02/15 06:31:15;;;;;;;20.07;5.97;;;-0.60;99.90;;;0.17;100.00;99430.94;5009843;28;20543;-80
2023/02/15 06:33:45;;;;;;;27.57;6.00;;;-0.60;99.90;;;0.16;100.00;99423.31;5010645;28;20550;-79
2023/02/15 06:36:15;;;;;;;19.83;6.50;;;-0.60;99.90;;;0.09;100.00;99425.41;5009164;28;20502;-79
2023/02/15 06:38:45;;;;;;;15.63;7.50;;;-0.70;99.90;;;0.12;100.00;99426.97;5009545;28;20556;-79
2023/02/15 06:41:16;;;;;;;18.13;6.03;;;-0.60;99.90;;;0.09;100.00;99433.13;5009433;28;20562;-79
2023/02/15 06:43:45;;;;;;;19.23;6.57;;;-0.70;99.90;;;0.10;100.00;99434.78;5009722;28;20468;-79
2023/02/15 06:46:15;;;;;;;13.87;6.37;;;-0.60;99.90;;;0.14;100.00;99438.81;5009692;28;20952;-79
2023/02/15 06:48:44;;;;;;;12.83;6.07;;;-0.60;99.90;;;0.17;100.00;99443.81;5009167;28;20463;-79
2023/02/15 06:51:13;;;;;;;31.77;7.10;;;-0.50;99.90;;;0.22;100.00;99440.94;5009919;28;20508;-80
2023/02/15 06:53:44;;;;;;;13.60;5.47;;;-0.50;99.90;;;0.21;100.00;99439.31;5007518;28;20890;-79
2023/02/15 06:56:15;;;;;;;13.53;6.00;;;-0.50;99.90;;;0.23;100.00;99438.28;5008744;28;20538;-79
2023/02/15 06:58:46;;;;;;;15.73;6.10;;;-0.50;99.90;;;0.26;100.00;99439.84;5009741;28;20966;-79
2023/02/15 07:01:15;;;;;;;22.93;6.03;;;-0.50;99.90;;;0.30;100.00;99446.47;5009746;28;20558;-79
2023/02/15 07:03:45;;;;;;;18.27;6.20;;;-0.30;99.90;;;0.31;100.00;99443.81;5008771;28;20473;-79
2023/02/15 07:06:14;;;;;;;17.40;5.50;;;-0.20;99.90;;;0.29;100.00;99445.66;5009412;28;20473;-79
2023/02/15 07:08:43;;;;;;;25.00;6.20;;;-0.20;99.90;;;0.29;100.00;99445.66;5008847;28;20468;-80
2023/02/15 07:14:01;;;;;;;19.60;6.60;;;0.00;99.90;;;0.28;100.00;99438.84;5008553;28;21009;-79
2023/02/15 07:16:31;;;;;;;18.20;6.93;;;-0.10;99.90;;;0.26;100.00;99434.72;5007944;28;21030;-79
2023/02/15 07:19:00;;;;;;;25.43;7.50;;;-0.20;99.90;;;0.28;100.00;99444.00;5008427;28;20475;-79
2023/02/15 07:21:30;;;;;;;17.00;5.77;;;-0.30;99.90;;;0.27;100.00;99436.38;5008567;28;20560;-79
2023/02/15 07:23:59;;;;;;;17.00;6.90;;;-0.30;99.90;;;0.25;100.00;99433.88;5009883;28;20468;-80
2023/02/15 07:26:31;;;;;;;20.37;7.47;;;-0.40;99.90;;;0.22;100.00;99439.22;5009371;28;20472;-79
2023/02/15 07:29:01;;;;;;;15.43;5.40;;;-0.50;99.90;;;0.26;100.00;99432.97;5007302;28;20495;-79
2023/02/15 07:31:31;;;;;;;23.10;7.67;;;-0.50;99.90;;;0.28;100.00;99436.28;5008831;28;20498;-79
2023/02/15 07:34:02;;;;;;;16.50;7.17;;;-0.40;99.90;;;0.26;100.00;99429.56;5008150;28;20480;-79
2023/02/15 07:36:33;;;;;;;11.33;6.83;;;-0.40;99.90;;;0.15;100.00;99430.19;5008701;28;21042;-80
2023/02/15 07:39:03;;;;;;;13.83;6.80;;;-0.60;99.90;;;0.19;100.00;99426.53;5010241;28;20874;-79
2023/02/15 07:41:34;;;;;;;16.20;7.03;;;-0.50;99.90;;;0.21;100.00;99421.31;5008040;28;20976;-80
2023/02/15 07:44:04;;;;;;;23.33;7.57;;;-0.50;99.90;;;0.19;100.00;99429.09;5008561;28;20497;-79
2023/02/15 07:46:35;;;;;;;29.77;6.40;;;-0.50;99.90;;;0.18;100.00;99421.47;5007983;28;20469;-79
2023/02/15 07:49:06;;;;;;;23.20;7.43;;;-0.60;99.90;;;0.18;100.00;99424.84;5007048;28;20497;-80
2023/02/15 07:51:35;;;;;;;10.93;7.00;;;-0.60;99.90;;;0.22;100.00;99423.78;5010051;28;20469;-79
2023/02/15 07:54:04;;;;;;;19.63;7.30;;;-0.50;99.90;;;0.26;100.00;99417.53;5007674;28;20474;-79
2023/02/15 07:56:34;;;;;;;20.93;8.60;;;-0.40;99.90;;;0.29;100.00;99406.25;5009130;28;20532;-80
2023/02/15 07:59:08;;;;;;;11.00;6.30;;;-0.30;99.90;;;0.26;100.00;99399.53;5006719;28;20475;-79
2023/02/15 08:01:40;;;;;;;10.30;5.50;;;-0.40;99.90;;;0.29;100.00;99399.34;5008316;28;20466;-79
2023/02/15 08:04:10;;;;;;;13.33;5.70;;;-0.20;99.90;;;0.32;100.00;99396.59;5009137;28;20548;-80
2023/02/15 08:06:40;;;;;;;17.10;7.50;;;-0.20;99.90;;;0.31;100.00;99402.66;5006147;28;20956;-80
2023/02/15 08:09:11;;;;;;;15.67;7.23;;;-0.30;99.90;;;0.24;100.00;99396.25;5007272;28;20981;-79
2023/02/15 08:11:41;;;;;;;11.60;6.30;;;-0.30;99.90;;;0.26;100.00;99394.41;5007274;28;20485;-79
2023/02/15 08:14:15;;;;;;;29.33;7.87;;;-0.30;99.90;;;0.23;100.00;99392.00;5007049;28;20468;-79
2023/02/15 08:16:47;;;;;;;12.00;6.63;;;-0.50;99.90;;;0.27;100.00;99387.50;5006502;28;20500;-79
2023/02/15 08:19:18;;;;;;;25.33;6.60;;;-0.40;99.90;;;0.34;100.00;99392.22;5008614;28;20472;-79
2023/02/15 08:21:51;;;;;;;20.80;6.97;;;-0.30;99.90;;;0.36;100.00;99380.06;5005722;28;20471;-79
2023/02/15 08:24:23;;;;;;;24.03;7.63;;;-0.30;99.90;;;0.40;100.00;99386.69;5006751;28;20890;-80
2023/02/15 08:26:53;;;;;;;14.90;8.10;;;-0.20;99.90;;;0.37;100.00;99394.59;5008305;28;20505;-79
2023/02/15 08:29:27;;;;;;;13.27;7.27;;;-0.30;99.90;;;0.42;100.00;99387.44;5008803;28;20474;-79
2023/02/15 08:31:58;;;;;;;13.77;7.47;;;-0.20;99.90;;;0.43;100.00;99381.38;5006440;28;20848;-80
2023/02/15 08:34:29;;;;;;;16.33;7.37;;;-0.20;99.90;;;0.49;100.00;99378.44;5007833;28;20520;-79
2023/02/15 08:37:00;;;;;;;16.53;7.90;;;-0.10;99.90;;;0.51;100.00;99378.34;5006829;28;21816;-79
2023/02/15 08:39:30;;;;;;;20.10;8.83;;;-0.10;99.90;;;0.56;100.00;99380.63;5006241;28;21032;-79
2023/02/15 08:42:00;;;;;;;19.83;7.07;;;0.10;99.90;;;0.55;100.00;99372.13;5005331;28;20474;-79
2023/02/15 08:44:31;;;;;;;30.90;8.57;;;0.00;99.90;;;0.55;100.00;99384.16;5006188;28;20466;-79
2023/02/15 08:47:03;;;;;;;15.33;8.40;;;0.10;99.90;;;0.52;100.00;99375.66;5006578;28;20981;-79
2023/02/15 08:49:33;;;;;;;13.33;7.17;;;0.10;99.90;;;0.57;100.00;99387.44;5006831;28;20560;-79
2023/02/15 08:52:03;;;;;;;17.47;7.13;;;0.10;99.90;;;0.58;100.00;99373.66;5005645;28;20480;-80
2023/02/15 08:54:32;;;;;;;11.93;7.30;;;0.10;99.90;;;0.57;100.00;99377.97;5007322;28;20464;-79
2023/02/15 08:57:01;;;;;;;13.63;7.63;;;0.00;99.90;;;0.54;100.00;99380.75;5007109;28;21089;-80
2023/02/15 08:59:32;;;;;;;12.97;7.13;;;0.00;99.90;;;0.54;100.00;99382.47;5004377;28;20468;-79
2023/02/15 09:02:02;;;;;;;14.17;7.30;;;-0.10;99.90;;;0.52;100.00;99383.38;5006020;28;20637;-79
2023/02/15 09:04:34;;;;;;;11.30;6.67;;;-0.20;99.90;;;0.57;100.00;99390.00;5007392;28;20470;-79
2023/02/15 09:07:04;;;;;;;17.73;7.40;;;-0.10;99.90;;;0.61;100.00;99388.91;5007162;28;20468;-79
2023/02/15 09:09:33;;;;;;;17.67;7.80;;;0.00;99.90;;;0.61;100.00;99388.91;5006907;28;20465;-79
2023/02/15 09:12:03;;;;;;;18.90;9.17;;;0.00;99.90;;;0.62;100.00;99391.41;5005408;28;20462;-80
2023/02/15 09:14:35;;;;;;;14.30;7.30;;;0.00;99.90;;;0.55;100.00;99389.28;5006427;28;20500;-79
2023/02/15 09:17:06;;;;;;;13.63;6.97;;;-0.10;99.90;;;0.56;100.00;99401.22;5006077;28;20566;-79
2023/02/15 09:19:36;;;;;;;11.17;6.80;;;-0.10;99.90;;;0.58;100.00;99394.25;5006693;28;20466;-79
2023/02/15 09:22:06;;;;;;;13.47;7.30;;;-0.10;99.90;;;0.62;100.00;99396.56;5007713;28;20461;-79
2023/02/15 09:24:36;;;;;;;12.53;7.00;;;-0.10;99.90;;;0.72;100.00;99395.09;5006234;28;20509;-79
2023/02/15 09:27:06;;;;;;;11.63;7.13;;;0.20;99.90;;;0.71;100.00;99392.59;5007050;28;20475;-79
2023/02/15 09:29:41;;;;;;;14.50;7.27;;;0.20;99.90;;;0.73;100.00;99389.00;5006984;28;20519;-79
2023/02/15 09:32:16;;;;;;;16.17;7.77;;;0.20;99.90;;;0.78;100.00;99391.31;5006569;28;20501;-79
2023/02/15 09:34:45;;;;;;;13.03;6.23;;;0.20;99.90;;;0.75;100.00;99386.34;5008746;28;20888;-79
2023/02/15 09:37:15;;;;;;;15.40;8.23;;;0.10;99.90;;;0.83;100.00;99389.28;5010196;28;20970;-79
2023/02/15 09:39:46;;;;;;;11.63;6.70;;;0.20;99.90;;;0.88;100.00;99392.41;5009831;28;20548;-79
2023/02/15 09:42:57;;;;;;;11.20;6.63;;;0.30;99.90;;;0.91;100.00;99387.06;5010756;28;20596;-79
2023/02/15 09:45:52;;;;;;;11.20;6.60;;;0.30;99.90;;;1.00;100.00;99383.94;5002626;28;20477;-79
2023/02/15 09:48:41;;;;;;;17.20;7.57;;;0.50;99.90;;;1.07;100.00;99385.22;5008845;28;20498;-79
2023/02/15 09:51:59;;;;;;;10.57;6.27;;;0.60;99.90;;;1.12;100.00;99393.47;5010556;28;20467;-79
2023/02/15 09:54:59;;;;;;;11.97;6.27;;;0.70;99.90;;;1.14;100.00;99394.22;5011107;28;20553;-79
2023/02/15 09:57:42;;;;;;;11.40;6.33;;;0.80;99.90;;;1.13;100.00;99387.41;5009368;28;20565;-79
2023/02/15 10:00:29;;;;;;;14.80;8.20;;;0.80;99.90;;;1.15;100.00;99385.56;5011074;28;20468;-80
2023/02/15 10:03:25;;;;;;;8.93;5.53;;;0.90;99.90;;;1.21;100.00;99385.19;5009485;28;20989;-79
2023/02/15 10:06:23;;;;;;;9.80;5.80;;;0.90;99.90;;;1.21;100.00;99382.63;5010775;28;20467;-79
2023/02/15 10:09:25;;;;;;;12.30;6.30;;;0.90;99.90;;;1.26;100.00;99380.56;5009688;28;20463;-79
2023/02/15 10:12:14;;;;;;;8.90;5.50;;;0.90;99.90;;;1.31;100.00;99378.56;5009370;28;20552;-79
2023/02/15 10:15:24;;;;;;;12.37;6.10;;;1.00;99.90;;;1.37;100.00;99380.72;5009081;28;20467;-80
2023/02/15 10:18:24;;;;;;;10.07;6.37;;;1.00;99.90;;;1.45;100.00;99370.78;4985654;28;20492;-79
2023/02/15 10:21:08;;;;;;;13.53;7.00;;;1.10;99.90;;;1.50;100.00;99376.44;5009483;28;20536;-79
2023/02/15 10:23:59;;;;;;;13.73;6.17;;;1.10;99.90;;;1.55;100.00;99372.75;5008679;28;20494;-79
2023/02/15 10:26:38;;;;;;;10.70;6.80;;;1.20;99.90;;;1.55;100.00;99373.59;5008368;28;20981;-79
2023/02/15 10:29:20;;;;;;;11.37;5.60;;;1.10;99.90;;;1.58;100.00;99375.13;5009781;28;20548;-79
2023/02/15 10:31:56;;;;;;;10.13;6.63;;;1.00;99.90;;;1.63;100.00;99365.38;5008466;28;20581;-79
2023/02/15 10:34:38;;;;;;;10.30;6.60;;;1.10;99.90;;;1.70;100.00;99367.44;5008648;28;20524;-79
2023/02/15 10:37:38;;;;;;;10.27;5.63;;;1.30;99.90;;;1.72;100.00;99369.94;5010322;28;20996;-80
2023/02/15 10:40:22;;;;;;;9.90;5.93;;;1.30;99.90;;;1.78;100.00;99367.78;5008821;28;20492;-79
2023/02/15 10:43:16;;;;;;;8.63;5.30;;;1.40;99.90;;;1.85;100.00;99361.31;5008602;28;20524;-79
2023/02/15 10:46:01;;;;;;;8.93;5.80;;;1.40;99.90;;;1.93;100.00;99365.97;5008800;28;20997;-80
2023/02/15 10:49:11;;;;;;;10.83;6.17;;;1.50;99.90;;;1.97;100.00;99360.50;5009324;28;20474;-79
2023/02/15 10:52:03;;;;;;;10.90;5.80;;;1.60;99.90;;;1.99;100.00;99353.47;5009911;28;20474;-79
2023/02/15 10:54:47;;;;;;;9.50;5.60;;;1.60;99.90;;;2.06;100.00;99346.16;5009559;28;20486;-79
2023/02/15 10:57:28;;;;;;;12.50;5.70;;;1.70;99.90;;;2.13;100.00;99347.41;5008298;28;20527;-79
2023/02/15 11:00:14;;;;;;;11.00;6.60;;;1.80;99.90;;;2.14;100.00;99349.06;5009205;28;21000;-78
2023/02/15 11:03:12;;;;;;;10.30;6.57;;;1.80;99.90;;;2.16;100.00;99339.47;5008245;28;20467;-79
2023/02/15 11:06:01;;;;;;;10.90;5.57;;;1.80;99.90;;;2.23;100.00;99335.56;5008801;28;20466;-80
2023/02/15 11:08:42;;;;;;;7.77;5.37;;;1.90;99.90;;;2.23;100.00;99338.13;5008794;28;20467;-79
2023/02/15 11:11:21;;;;;;;12.80;6.87;;;1.90;99.90;;;2.26;100.00;99335.34;5008906;28;20463;-79
2023/02/15 11:13:58;;;;;;;10.80;6.00;;;1.90;99.90;;;2.27;100.00;99325.84;5008885;28;20503;-79
2023/02/15 11:16:34;;;;;;;10.17;6.10;;;1.90;99.90;;;2.31;100.00;99328.13;5007479;28;20493;-79